createdAt,value
2023-01-15T00:00:09.102Z,21.70
2023-01-15T00:02:38.348Z,21.60
2023-01-15T00:05:08.937Z,21.60
2023-01-15T00:07:39.396Z,21.60
2023-01-15T00:10:10.099Z,21.60
2023-01-15T00:12:39.225Z,21.60
2023-01-15T00:15:09.328Z,21.60
2023-01-15T00:17:38.409Z,21.60
2023-01-15T00:20:08.367Z,21.80
2023-01-15T00:22:39.112Z,21.70
2023-01-15T00:25:26.256Z,21.80
2023-01-15T00:27:55.329Z,21.90
2023-01-15T00:30:24.980Z,21.80
2023-01-15T00:32:54.309Z,21.90
2023-01-15T00:35:25.706Z,21.90
2023-01-15T00:37:56.127Z,21.90
2023-01-15T00:40:24.937Z,21.80
2023-01-15T00:42:54.727Z,21.90
2023-01-15T00:45:24.271Z,21.90
2023-01-15T00:47:53.847Z,21.90
2023-01-15T00:50:22.987Z,21.80
2023-01-15T00:52:51.792Z,21.70
2023-01-15T00:55:23.938Z,21.80
2023-01-15T00:57:52.804Z,21.70
2023-01-15T01:00:22.310Z,21.70
2023-01-15T01:02:51.164Z,21.70
2023-01-15T01:05:20.396Z,21.70
2023-01-15T01:07:49.233Z,21.60
2023-01-15T01:10:18.842Z,21.60
2023-01-15T01:12:51.880Z,21.50
2023-01-15T01:15:22.359Z,21.60
2023-01-15T01:17:51.489Z,21.60
2023-01-15T01:20:20.870Z,21.40
2023-01-15T01:22:50.897Z,21.40
2023-01-15T01:25:20.499Z,21.60
2023-01-15T01:27:51.069Z,21.60
2023-01-15T01:30:20.438Z,21.50
2023-01-15T01:32:49.235Z,21.50
2023-01-15T01:35:18.567Z,21.50
2023-01-15T01:37:51.804Z,21.50
2023-01-15T01:40:21.724Z,21.50
2023-01-15T01:42:52.812Z,21.50
2023-01-15T01:45:26.916Z,21.50
2023-01-15T01:48:01.853Z,21.60
2023-01-15T01:50:33.774Z,21.50
2023-01-15T01:53:09.485Z,21.50
2023-01-15T01:55:39.533Z,21.40
2023-01-15T01:58:13.320Z,21.40
2023-01-15T02:00:49.361Z,21.40
2023-01-15T02:03:22.644Z,21.40
2023-01-15T02:05:59.558Z,21.50
2023-01-15T02:08:32.472Z,21.40
2023-01-15T02:11:02.779Z,21.40
2023-01-15T02:13:41.751Z,21.40
2023-01-15T02:16:21.789Z,21.40
2023-01-15T02:18:59.921Z,21.50
2023-01-15T02:21:51.137Z,21.40
2023-01-15T02:24:33.083Z,21.40
2023-01-15T02:27:13.307Z,21.40
2023-01-15T02:29:54.068Z,21.30
2023-01-15T02:32:36.615Z,21.30
2023-01-15T02:35:14.831Z,21.30
2023-01-15T02:37:50.855Z,21.30
2023-01-15T02:40:23.934Z,21.30
2023-01-15T02:42:58.498Z,21.30
2023-01-15T02:45:32.279Z,21.40
2023-01-15T02:48:13.303Z,21.40
2023-01-15T02:50:47.995Z,21.40
2023-01-15T02:53:26.441Z,21.40
2023-01-15T02:56:04.358Z,21.40
2023-01-15T02:58:43.885Z,21.40
2023-01-15T03:01:20.140Z,21.40
2023-01-15T03:03:59.179Z,21.40
2023-01-15T03:06:39.734Z,21.40
2023-01-15T03:09:10.229Z,21.40
2023-01-15T03:11:49.097Z,21.40
2023-01-15T03:14:28.281Z,21.40
2023-01-15T03:17:05.798Z,21.40
2023-01-15T03:19:45.840Z,21.50
2023-01-15T03:22:27.229Z,21.40
2023-01-15T03:25:04.329Z,21.40
2023-01-15T03:27:37.305Z,21.40
2023-01-15T03:30:13.026Z,21.30
2023-01-15T03:32:42.145Z,21.30
2023-01-15T03:35:47.021Z,21.20
2023-01-15T03:38:29.765Z,21.10
2023-01-15T03:41:15.234Z,21.10
2023-01-15T03:44:03.187Z,21.20
2023-01-15T03:46:56.044Z,21.10
2023-01-15T03:49:39.922Z,21.20
2023-01-15T03:52:23.864Z,21.10
2023-01-15T03:55:11.166Z,21.10
2023-01-15T03:57:49.512Z,21.20
2023-01-15T04:00:26.366Z,21.20
2023-01-15T04:03:04.848Z,21.20
2023-01-15T04:05:39.003Z,21.20
2023-01-15T04:08:10.659Z,21.10
2023-01-15T04:10:39.530Z,21.20
2023-01-15T04:13:12.477Z,21.10
2023-01-15T04:15:43.461Z,21.20
2023-01-15T04:18:14.101Z,21.20
2023-01-15T04:20:43.775Z,21.20
2023-01-15T04:23:14.312Z,21.30
2023-01-15T04:25:43.610Z,21.20
2023-01-15T04:28:14.045Z,21.20
2023-01-15T04:30:43.777Z,21.20
2023-01-15T04:33:14.234Z,21.20
2023-01-15T04:35:43.160Z,21.30
2023-01-15T04:38:12.182Z,21.40
2023-01-15T04:40:58.400Z,21.50
2023-01-15T04:43:45.159Z,21.40
2023-01-15T04:46:14.127Z,21.40
2023-01-15T04:48:44.597Z,21.30
2023-01-15T04:51:13.726Z,21.20
2023-01-15T04:53:42.903Z,21.30
2023-01-15T04:56:11.864Z,21.20
2023-01-15T04:58:40.934Z,21.30
2023-01-15T05:01:14.018Z,21.30
2023-01-15T05:03:45.181Z,21.20
2023-01-15T05:06:14.578Z,21.20
2023-01-15T05:08:43.736Z,21.30
2023-01-15T05:11:13.187Z,21.20
2023-01-15T05:13:42.359Z,21.30
2023-01-15T05:16:14.519Z,21.30
2023-01-15T05:18:46.828Z,21.30
2023-01-15T05:21:18.503Z,21.30
2023-01-15T05:23:48.042Z,21.30
2023-01-15T05:26:17.085Z,21.40
2023-01-15T05:28:46.576Z,21.40
2023-01-15T05:31:18.589Z,21.40
2023-01-15T05:33:50.643Z,21.50
2023-01-15T05:36:22.992Z,21.60
2023-01-15T05:38:52.897Z,21.70
2023-01-15T05:41:41.015Z,21.60
2023-01-15T05:44:12.789Z,21.60
2023-01-15T05:46:44.865Z,21.60
2023-01-15T05:49:18.690Z,21.60
2023-01-15T05:51:48.154Z,21.60
2023-01-15T05:54:21.889Z,21.70
2023-01-15T05:56:50.812Z,21.70
2023-01-15T05:59:22.172Z,21.80
2023-01-15T06:01:51.475Z,21.90
2023-01-15T06:04:22.828Z,22.00
2023-01-15T06:06:53.737Z,22.00
2023-01-15T06:09:24.036Z,22.00
2023-01-15T06:11:54.100Z,21.90
2023-01-15T06:14:23.242Z,21.90
2023-01-15T06:16:52.082Z,21.80
2023-01-15T06:19:22.616Z,21.70
2023-01-15T06:21:51.395Z,21.70
2023-01-15T06:24:20.969Z,21.70
2023-01-15T06:26:49.915Z,21.60
2023-01-15T06:29:20.571Z,21.60
2023-01-15T06:31:50.200Z,21.60
2023-01-15T06:34:19.372Z,21.60
2023-01-15T06:36:49.523Z,21.60
2023-01-15T06:39:18.581Z,21.60
2023-01-15T06:42:19.232Z,21.60
2023-01-15T06:45:05.639Z,21.60
2023-01-15T06:47:34.455Z,21.60
2023-01-15T06:50:03.631Z,21.60
2023-01-15T06:52:33.816Z,21.60
2023-01-15T06:55:02.901Z,21.60
2023-01-15T06:57:31.768Z,21.70
2023-01-15T07:00:01.018Z,21.60
2023-01-15T07:02:29.809Z,21.60
2023-01-15T07:04:58.945Z,21.60
2023-01-15T07:07:30.436Z,21.60
2023-01-15T07:10:00.913Z,21.50
2023-01-15T07:12:30.549Z,21.50
2023-01-15T07:14:59.620Z,21.50
2023-01-15T07:17:28.431Z,21.50
2023-01-15T07:19:57.559Z,21.40
2023-01-15T07:22:26.367Z,21.40
2023-01-15T07:24:55.466Z,21.30
2023-01-15T07:27:25.759Z,21.30
2023-01-15T07:29:54.847Z,21.30
2023-01-15T07:32:23.639Z,21.30
2023-01-15T07:34:52.699Z,21.20
2023-01-15T07:37:21.473Z,21.20
2023-01-15T07:39:50.553Z,21.20
2023-01-15T07:42:37.034Z,21.20
2023-01-15T07:45:23.685Z,21.20
2023-01-15T07:48:09.861Z,21.10
2023-01-15T07:50:38.967Z,21.10
2023-01-15T07:53:07.736Z,21.10
2023-01-15T07:55:37.512Z,21.00
2023-01-15T07:58:06.324Z,21.00
2023-01-15T08:00:36.790Z,21.10
2023-01-15T08:03:06.602Z,21.10
2023-01-15T08:05:35.679Z,21.10
2023-01-15T08:08:04.525Z,21.00
2023-01-15T08:10:53.656Z,21.00
2023-01-15T08:13:39.855Z,21.00
2023-01-15T08:16:11.382Z,21.10
2023-01-15T08:18:40.826Z,21.10
2023-01-15T08:21:16.467Z,21.20
2023-01-15T08:23:46.672Z,21.20
2023-01-15T08:26:15.865Z,21.20
2023-01-15T08:28:44.693Z,21.20
2023-01-15T08:31:15.169Z,21.20
2023-01-15T08:33:44.003Z,21.30
2023-01-15T08:36:13.090Z,21.40
2023-01-15T08:38:41.855Z,21.30
2023-01-15T08:41:10.988Z,21.30
2023-01-15T08:43:39.743Z,21.30
2023-01-15T08:46:09.753Z,21.30
2023-01-15T08:48:40.177Z,21.30
2023-01-15T08:51:12.255Z,21.30
2023-01-15T08:53:41.711Z,21.30
2023-01-15T08:56:14.648Z,21.30
2023-01-15T08:58:44.116Z,21.40
2023-01-15T09:01:16.144Z,21.40
2023-01-15T09:03:46.603Z,21.50
2023-01-15T09:06:15.860Z,21.50
2023-01-15T09:08:44.701Z,21.50
2023-01-15T09:11:14.062Z,21.40
2023-01-15T09:13:44.478Z,21.40
2023-01-15T09:16:13.870Z,21.40
2023-01-15T09:18:43.389Z,21.40
2023-01-15T09:21:13.925Z,21.40
2023-01-15T09:23:42.709Z,21.40
2023-01-15T09:26:29.906Z,21.30
2023-01-15T09:28:59.869Z,21.30
2023-01-15T09:31:29.435Z,21.40
2023-01-15T09:33:59.256Z,21.40
2023-01-15T09:36:31.892Z,21.40
2023-01-15T09:39:02.881Z,21.50
2023-01-15T09:42:08.242Z,21.40
2023-01-15T09:45:15.008Z,21.40
2023-01-15T09:48:02.321Z,21.40
2023-01-15T09:50:48.524Z,21.40
2023-01-15T09:53:43.733Z,21.40
2023-01-15T09:56:22.264Z,21.40
2023-01-15T09:58:53.590Z,21.40
2023-01-15T10:01:30.179Z,21.40
2023-01-15T10:04:07.386Z,21.40
2023-01-15T10:06:45.762Z,21.40
2023-01-15T10:09:23.425Z,21.40
2023-01-15T10:12:19.128Z,21.40
2023-01-15T10:15:01.503Z,21.40
2023-01-15T10:17:41.581Z,21.50
2023-01-15T10:20:25.684Z,21.50
2023-01-15T10:23:20.269Z,21.40
2023-01-15T10:26:00.386Z,21.40
2023-01-15T10:28:32.362Z,21.40
2023-01-15T10:31:13.081Z,21.40
2023-01-15T10:34:04.898Z,21.40
2023-01-15T10:36:38.429Z,21.50
2023-01-15T10:39:21.489Z,21.40
2023-01-15T10:42:08.266Z,21.50
2023-01-15T10:44:51.014Z,21.50
2023-01-15T10:47:27.555Z,21.60
2023-01-15T10:49:59.536Z,21.60
2023-01-15T10:52:35.146Z,21.60
2023-01-15T10:55:18.265Z,21.70
2023-01-15T10:58:09.760Z,21.70
2023-01-15T11:00:41.059Z,21.80
2023-01-15T11:03:21.347Z,21.80
2023-01-15T11:05:50.695Z,21.80
2023-01-15T11:09:06.354Z,21.80
2023-01-15T11:11:44.897Z,21.90
2023-01-15T11:14:32.954Z,22.00
2023-01-15T11:17:19.628Z,22.00
2023-01-15T11:19:53.984Z,22.00
2023-01-15T11:22:23.151Z,22.00
2023-01-15T11:24:56.367Z,21.90
2023-01-15T11:27:29.595Z,21.90
2023-01-15T11:30:02.625Z,21.90
2023-01-15T11:32:35.306Z,21.90
2023-01-15T11:35:18.161Z,21.90
2023-01-15T11:37:46.987Z,22.00
2023-01-15T11:40:20.190Z,22.00
2023-01-15T11:43:08.320Z,21.90
2023-01-15T11:46:06.930Z,22.00
2023-01-15T11:49:01.916Z,22.00
2023-01-15T11:51:42.991Z,22.00
2023-01-15T11:54:16.402Z,22.10
2023-01-15T11:56:48.699Z,22.00
2023-01-15T11:59:20.974Z,22.10
2023-01-15T12:02:00.033Z,22.00
2023-01-15T12:04:38.757Z,22.00
2023-01-15T12:07:14.371Z,22.10
2023-01-15T12:10:14.163Z,22.00
2023-01-15T12:13:07.833Z,22.10
2023-01-15T12:15:51.676Z,22.10
2023-01-15T12:18:52.061Z,22.20
2023-01-15T12:21:53.875Z,22.20
2023-01-15T12:25:12.149Z,22.30
2023-01-15T12:27:57.327Z,22.30
2023-01-15T12:30:39.456Z,22.30
2023-01-15T12:33:23.399Z,22.40
2023-01-15T12:36:03.728Z,22.40
2023-01-15T12:38:57.066Z,22.40
2023-01-15T12:41:46.606Z,22.50
2023-01-15T12:44:40.631Z,22.50
2023-01-15T12:47:19.749Z,22.60
2023-01-15T12:49:57.542Z,22.70
2023-01-15T12:52:36.415Z,22.70
2023-01-15T12:55:15.589Z,22.70
2023-01-15T12:57:50.884Z,22.80
2023-01-15T13:00:26.666Z,22.80
2023-01-15T13:03:16.012Z,22.80
2023-01-15T13:05:50.199Z,22.80
2023-01-15T13:08:28.613Z,22.90
2023-01-15T13:10:58.028Z,22.90
2023-01-15T13:13:31.899Z,23.10
2023-01-15T13:16:17.445Z,23.00
2023-01-15T13:19:02.895Z,23.10
2023-01-15T13:21:36.895Z,23.10
2023-01-15T13:24:56.895Z,23.10
2023-01-15T13:27:49.733Z,23.10
2023-01-15T13:30:41.655Z,23.20
2023-01-15T13:33:28.337Z,23.20
2023-01-15T13:36:07.771Z,23.30
2023-01-15T13:38:44.247Z,23.30
2023-01-15T13:41:37.195Z,23.30
2023-01-15T13:44:06.669Z,23.30
2023-01-15T13:46:35.885Z,23.20
2023-01-15T13:49:05.596Z,23.30
2023-01-15T13:51:39.159Z,23.40
2023-01-15T13:54:17.776Z,23.40
2023-01-15T13:56:48.372Z,23.40
2023-01-15T13:59:45.974Z,23.40
2023-01-15T14:02:30.496Z,23.40
2023-01-15T14:04:59.950Z,23.40
2023-01-15T14:07:36.980Z,23.40
2023-01-15T14:10:26.756Z,23.40
2023-01-15T14:13:26.603Z,23.40
2023-01-15T14:16:13.996Z,23.40
2023-01-15T14:19:09.480Z,23.50
2023-01-15T14:21:56.812Z,23.50
2023-01-15T14:24:57.555Z,23.50
2023-01-15T14:27:54.564Z,23.60
2023-01-15T14:30:59.951Z,23.50
2023-01-15T14:33:46.052Z,23.60
2023-01-15T14:36:21.992Z,23.60
2023-01-15T14:38:57.036Z,23.70
2023-01-15T14:41:31.238Z,23.70
2023-01-15T14:44:03.156Z,23.70
2023-01-15T14:46:38.755Z,23.70
2023-01-15T14:49:29.290Z,23.70
2023-01-15T14:52:00.620Z,23.70
2023-01-15T14:54:31.636Z,23.60
2023-01-15T14:57:03.385Z,23.60
2023-01-15T14:59:48.357Z,23.70
2023-01-15T15:02:25.524Z,23.70
2023-01-15T15:04:58.163Z,23.60
2023-01-15T15:07:39.380Z,23.70
2023-01-15T15:10:22.458Z,23.70
2023-01-15T15:13:04.247Z,23.70
2023-01-15T15:15:48.042Z,23.70
2023-01-15T15:18:32.426Z,23.70
2023-01-15T15:21:09.662Z,23.80
2023-01-15T15:23:47.096Z,23.80
2023-01-15T15:26:27.014Z,23.80
2023-01-15T15:29:01.842Z,23.80
2023-01-15T15:31:37.490Z,23.70
2023-01-15T15:34:17.462Z,23.80
2023-01-15T15:36:48.089Z,23.80
2023-01-15T15:39:24.273Z,23.80
2023-01-15T15:42:16.311Z,23.80
2023-01-15T15:45:11.637Z,23.80
2023-01-15T15:48:00.686Z,23.80
2023-01-15T15:50:34.621Z,23.80
2023-01-15T15:53:04.636Z,23.90
2023-01-15T15:55:40.640Z,24.00
2023-01-15T15:58:23.035Z,24.00
2023-01-15T16:00:53.697Z,23.90
2023-01-15T16:03:25.916Z,24.00
2023-01-15T16:06:01.935Z,23.90
2023-01-15T16:08:32.800Z,24.00
2023-01-15T16:11:06.087Z,24.00
2023-01-15T16:13:42.420Z,24.10
2023-01-15T16:16:14.011Z,24.10
2023-01-15T16:18:47.179Z,24.10
2023-01-15T16:21:25.447Z,24.00
2023-01-15T16:23:58.749Z,24.00
2023-01-15T16:26:36.206Z,24.00
2023-01-15T16:29:19.612Z,24.00
2023-01-15T16:31:49.277Z,24.00
2023-01-15T16:34:22.936Z,24.00
2023-01-15T16:36:53.824Z,23.90
2023-01-15T16:39:28.777Z,23.90
2023-01-15T16:42:02.405Z,23.90
2023-01-15T16:44:43.993Z,23.80
2023-01-15T16:47:25.080Z,23.80
2023-01-15T16:49:54.492Z,23.80
2023-01-15T16:52:54.578Z,23.90
2023-01-15T16:55:45.499Z,23.70
2023-01-15T16:58:22.189Z,23.60
2023-01-15T17:00:55.853Z,23.50
2023-01-15T17:03:28.476Z,23.50
2023-01-15T17:06:01.675Z,23.50
2023-01-15T17:08:39.611Z,23.40
2023-01-15T17:11:22.237Z,23.30
2023-01-15T17:13:52.293Z,23.30
2023-01-15T17:16:23.491Z,23.20
2023-01-15T17:18:53.124Z,23.30
2023-01-15T17:21:28.569Z,23.40
2023-01-15T17:24:00.715Z,23.40
2023-01-15T17:26:29.647Z,23.30
2023-01-15T17:28:58.743Z,23.20
2023-01-15T17:31:30.868Z,23.10
2023-01-15T17:34:02.654Z,23.10
2023-01-15T17:36:34.603Z,23.10
2023-01-15T17:39:05.666Z,23.10
2023-01-15T17:41:34.436Z,23.10
2023-01-15T17:44:04.147Z,23.00
2023-01-15T17:46:32.967Z,23.00
2023-01-15T17:49:02.047Z,23.00
2023-01-15T17:51:30.852Z,23.00
2023-01-15T17:53:59.994Z,23.00
2023-01-15T17:56:47.317Z,23.00
2023-01-15T17:59:34.155Z,23.00
2023-01-15T18:02:18.497Z,23.00
2023-01-15T18:05:09.927Z,23.10
2023-01-15T18:07:42.777Z,23.10
2023-01-15T18:10:18.811Z,23.00
2023-01-15T18:12:49.438Z,23.00
2023-01-15T18:15:19.663Z,22.90
2023-01-15T18:17:48.786Z,22.90
2023-01-15T18:20:18.151Z,22.80
2023-01-15T18:22:47.052Z,22.80
2023-01-15T18:25:16.198Z,22.70
2023-01-15T18:27:45.257Z,22.80
2023-01-15T18:30:18.465Z,22.70
2023-01-15T18:32:47.562Z,22.70
2023-01-15T18:35:18.343Z,22.60
2023-01-15T18:37:47.403Z,22.60
2023-01-15T18:40:16.824Z,22.60
2023-01-15T18:43:02.941Z,22.50
2023-01-15T18:45:50.907Z,22.40
2023-01-15T18:48:19.719Z,22.40
2023-01-15T18:50:49.252Z,22.20
2023-01-15T18:53:18.049Z,22.20
2023-01-15T18:55:47.185Z,22.10
2023-01-15T18:58:16.067Z,22.10
2023-01-15T19:00:46.610Z,22.10
2023-01-15T19:03:15.482Z,22.10
2023-01-15T19:05:44.708Z,22.10
2023-01-15T19:08:13.585Z,22.00
2023-01-15T19:10:42.807Z,21.90
2023-01-15T19:13:13.571Z,22.00
2023-01-15T19:16:01.076Z,22.00
2023-01-15T19:18:44.474Z,21.90
2023-01-15T19:21:13.992Z,21.80
2023-01-15T19:23:43.012Z,21.80
2023-01-15T19:26:12.427Z,21.80
2023-01-15T19:28:41.547Z,21.90
2023-01-15T19:31:29.341Z,21.90
2023-01-15T19:34:31.203Z,21.90
2023-01-15T19:36:50.227Z,21.90
2023-01-15T19:39:19.207Z,21.90
2023-01-15T19:42:05.814Z,21.90
2023-01-15T19:44:52.135Z,21.90
2023-01-15T19:47:46.970Z,22.00
2023-01-15T19:50:21.420Z,22.00
2023-01-15T19:52:52.770Z,22.10
2023-01-15T19:55:24.125Z,22.10
2023-01-15T19:58:00.086Z,22.10
2023-01-15T20:00:30.592Z,22.10
2023-01-15T20:02:59.997Z,22.20
2023-01-15T20:05:32.658Z,22.20
2023-01-15T20:08:01.877Z,22.20
2023-01-15T20:10:31.907Z,22.20
2023-01-15T20:13:19.316Z,22.20
2023-01-15T20:15:48.355Z,22.30
2023-01-15T20:18:18.786Z,22.30
2023-01-15T20:20:49.440Z,22.30
2023-01-15T20:23:18.553Z,22.30
2023-01-15T20:25:53.420Z,22.30
2023-01-15T20:28:22.589Z,22.30
2023-01-15T20:30:53.561Z,22.30
2023-01-15T20:33:23.057Z,22.30
2023-01-15T20:35:54.573Z,22.30
2023-01-15T20:38:24.433Z,22.30
2023-01-15T20:40:53.629Z,22.30
2023-01-15T20:43:40.167Z,22.40
2023-01-15T20:46:12.248Z,22.40
2023-01-15T20:48:58.763Z,22.40
2023-01-15T20:51:29.030Z,22.40
2023-01-15T20:53:59.121Z,22.40
2023-01-15T20:56:27.985Z,22.30
2023-01-15T20:58:58.386Z,22.30
2023-01-15T21:01:28.696Z,22.50
2023-01-15T21:03:57.916Z,22.40
2023-01-15T21:06:28.265Z,22.40
2023-01-15T21:08:57.502Z,22.40
2023-01-15T21:11:26.836Z,22.30
2023-01-15T21:13:55.963Z,22.20
2023-01-15T21:16:24.804Z,22.20
2023-01-15T21:18:54.067Z,22.20
2023-01-15T21:21:22.930Z,22.30
2023-01-15T21:23:53.412Z,22.20
2023-01-15T21:26:24.400Z,22.20
2023-01-15T21:28:55.598Z,22.20
2023-01-15T21:31:24.749Z,22.10
2023-01-15T21:33:55.288Z,22.10
2023-01-15T21:36:24.809Z,22.10
2023-01-15T21:38:57.780Z,22.10
2023-01-15T21:41:41.849Z,22.20
2023-01-15T21:44:34.851Z,22.10
2023-01-15T21:47:06.812Z,22.10
2023-01-15T21:49:36.558Z,22.10
2023-01-15T21:52:10.290Z,22.10
2023-01-15T21:54:41.429Z,22.10
2023-01-15T21:57:11.764Z,22.20
2023-01-15T21:59:41.270Z,22.20
2023-01-15T22:02:16.929Z,22.10
2023-01-15T22:04:47.105Z,22.10
2023-01-15T22:07:18.095Z,22.10
2023-01-15T22:09:48.624Z,22.10
2023-01-15T22:12:17.696Z,22.10
2023-01-15T22:14:47.216Z,22.00
2023-01-15T22:17:16.152Z,22.10
2023-01-15T22:19:45.211Z,22.00
2023-01-15T22:22:14.025Z,22.00
2023-01-15T22:24:43.573Z,22.00
2023-01-15T22:27:17.145Z,22.00
2023-01-15T22:29:46.233Z,22.00
2023-01-15T22:32:16.313Z,22.00
2023-01-15T22:34:45.389Z,22.00
2023-01-15T22:37:15.305Z,22.10
2023-01-15T22:39:44.331Z,22.10
2023-01-15T22:42:27.772Z,22.10
2023-01-15T22:45:00.150Z,22.00
2023-01-15T22:47:30.749Z,22.00
2023-01-15T22:49:59.864Z,22.00
2023-01-15T22:52:28.702Z,22.10
2023-01-15T22:54:57.949Z,22.10
2023-01-15T22:57:31.013Z,22.10
2023-01-15T23:00:00.230Z,22.00
2023-01-15T23:02:46.652Z,22.10
2023-01-15T23:05:15.904Z,22.10
2023-01-15T23:07:44.692Z,22.00
2023-01-15T23:10:14.915Z,22.00
2023-01-15T23:12:45.379Z,22.00
2023-01-15T23:15:16.333Z,22.00
2023-01-15T23:17:45.185Z,22.00
2023-01-15T23:20:15.133Z,22.00
2023-01-15T23:22:44.007Z,22.00
2023-01-15T23:25:13.104Z,22.00
2023-01-15T23:27:41.961Z,22.00
2023-01-15T23:30:14.033Z,22.00
2023-01-15T23:32:43.000Z,21.90
2023-01-15T23:35:12.092Z,21.80
2023-01-15T23:37:40.907Z,21.90
2023-01-15T23:40:11.767Z,21.80
2023-01-15T23:42:58.401Z,21.80
2023-01-15T23:45:51.863Z,21.80
2023-01-15T23:48:20.818Z,21.80
2023-01-15T23:50:49.917Z,21.80
2023-01-15T23:53:18.699Z,21.80
2023-01-15T23:55:47.848Z,21.80
2023-01-15T23:58:16.884Z,21.90
